Weather at Toncontín International Airport

Public forecast

Using degrees Celsius for public forecast. Weather courtesy of forecast.io.

Current aviation weather report (METAR) for Toncontín International Airport

Retrieved 2022/08/14 06:00 UTC (28 minutes ago):

MHTG 140600Z 00000KT 9999 FEW028CB BKN030 22119 Q1020 A3012 NOSIG

Aviation forecast (TAF) for Toncontín International Airport

Retrieved 2022/08/14 06:08 UTC (20 minutes ago):

TAF MHTG 140500Z 1406/1506 VRB03KT 9999 FEW010 SCT026 TX28/1421Z TN18/1412Z BECMG 1416/1418 07010KT SCT030TCU FEW035CB TEMPO 1420/1502 5000 TSSHRA BECMG 1502/1504 VRB03KT BKN028